Time;durP1;ratioP1;P1;durP2;ratioP2;P2;SDS_P1;SDS_P2;PMS_P1;PMS_P2;Temp;Humidity;BMP_temperature;BMP_pressure;BME280_temperature;BME280_humidity;BME280_pressure;Samples;Min_cycle;Max_cycle;Signal;HPM_P1;HPM_P2
2022/11/06 00:02:14;;;;;;;24.83;13.43;;;7.10;82.00;;;;;;4984692;28;20049;-55
2022/11/06 00:04:40;;;;;;;25.53;13.63;;;7.00;82.50;;;;;;4987048;28;20110;-49
2022/11/06 00:07:06;;;;;;;31.73;12.07;;;7.00;82.50;;;;;;4983483;28;20034;-47
2022/11/06 00:09:33;;;;;;;25.25;13.75;;;6.90;82.60;;;;;;4987070;28;20054;-47
2022/11/06 00:11:58;;;;;;;;;;;6.90;83.00;;;;;;4985538;28;20044;-53
2022/11/06 00:14:24;;;;;;;29.52;13.93;;;6.70;83.50;;;;;;4983862;28;20352;-53
2022/11/06 00:16:50;;;;;;;31.10;15.53;;;6.70;83.70;;;;;;4985962;28;20053;-50
2022/11/06 00:19:16;;;;;;;28.27;13.77;;;6.70;83.50;;;;;;4985216;28;20030;-49
2022/11/06 00:21:42;;;;;;;24.45;14.05;;;6.70;83.70;;;;;;4982026;28;20285;-52
2022/11/06 00:24:09;;;;;;;30.50;13.82;;;6.60;83.90;;;;;;4984936;28;20073;-54
2022/11/06 00:26:35;;;;;;;27.50;13.18;;;6.60;83.70;;;;;;4986939;28;20034;-53
2022/11/06 00:29:02;;;;;;;29.23;13.38;;;6.60;83.80;;;;;;4984485;28;20052;-50
2022/11/06 00:31:31;;;;;;;25.58;12.43;;;6.70;83.80;;;;;;4984003;28;20035;-54
2022/11/06 00:33:58;;;;;;;30.05;13.20;;;6.70;83.30;;;;;;4987388;28;20494;-55
2022/11/06 00:36:26;;;;;;;22.63;11.35;;;6.90;83.00;;;;;;4984000;28;20457;-47
2022/11/06 00:38:55;;;;;;;18.15;10.52;;;6.90;82.50;;;;;;4985541;28;20026;-54
2022/11/06 00:41:22;;;;;;;21.52;12.00;;;6.90;81.70;;;;;;4984611;28;20034;-54
2022/11/06 00:43:48;;;;;;;;;;;6.90;82.10;;;;;;4988784;28;20426;-54
2022/11/06 00:46:14;;;;;;;20.52;11.38;;;7.00;81.70;;;;;;4986124;28;20008;-50
2022/11/06 00:48:41;;;;;;;18.63;11.10;;;7.00;81.20;;;;;;4986376;28;20050;-53
2022/11/06 00:51:25;;;;;;;23.35;11.43;;;7.00;81.40;;;;;;4989255;28;20117;-52
2022/11/06 00:53:56;;;;;;;24.63;11.77;;;7.00;81.30;;;;;;5019555;28;20030;-46
2022/11/06 00:56:22;;;;;;;23.17;11.95;;;7.10;81.00;;;;;;4989104;28;20081;-51
2022/11/06 00:58:48;;;;;;;19.33;10.68;;;7.00;81.30;;;;;;4991155;28;20030;-49
2022/11/06 01:01:19;;;;;;;21.07;10.37;;;7.10;81.10;;;;;;4986253;28;20122;-54
2022/11/06 01:03:46;;;;;;;22.52;10.57;;;6.90;80.90;;;;;;4985174;28;20327;-54
2022/11/06 01:06:18;;;;;;;22.77;11.50;;;7.00;80.40;;;;;;4986324;28;20038;-52
2022/11/06 01:08:44;;;;;;;26.77;11.45;;;7.00;80.70;;;;;;4986217;28;20035;-49
2022/11/06 01:11:10;;;;;;;;;;;6.90;80.60;;;;;;4990502;28;20066;-52
2022/11/06 01:13:36;;;;;;;18.17;9.93;;;7.00;80.30;;;;;;4989128;28;19952;-52
2022/11/06 01:16:05;;;;;;;20.10;10.15;;;6.90;80.40;;;;;;4989657;28;20057;-48
2022/11/06 01:18:31;;;;;;;24.05;11.05;;;6.70;80.80;;;;;;5018439;28;20034;-50
2022/11/06 01:20:57;;;;;;;22.40;10.90;;;6.60;82.10;;;;;;4990396;28;20037;-51
2022/11/06 01:23:22;;;;;;;19.87;10.80;;;6.70;82.10;;;;;;4987614;28;20042;-50
2022/11/06 01:26:04;;;;;;;19.27;9.73;;;6.80;81.50;;;;;;4988042;28;20109;-55
2022/11/06 01:28:30;;;;;;;19.75;11.98;;;6.70;80.30;;;;;;4987171;28;20030;-53
2022/11/06 01:31:00;;;;;;;29.98;13.40;;;6.70;82.00;;;;;;4990677;28;20426;-53
2022/11/06 01:33:26;;;;;;;28.25;12.80;;;6.70;81.90;;;;;;4987573;28;20034;-56
2022/11/06 01:35:52;;;;;;;27.30;13.13;;;6.70;81.80;;;;;;4987168;28;20530;-51
2022/11/06 01:38:17;;;;;;;23.23;11.30;;;6.80;81.10;;;;;;4988083;28;20056;-56
2022/11/06 01:40:45;;;;;;;20.27;12.20;;;6.80;81.10;;;;;;4990485;28;20034;-51
2022/11/06 01:43:20;;;;;;;27.23;12.23;;;6.60;81.60;;;;;;4988742;28;20030;-53
2022/11/06 01:45:49;;;;;;;25.05;11.30;;;6.70;81.90;;;;;;4987329;28;20022;-48
2022/11/06 01:48:16;;;;;;;29.02;12.50;;;6.70;81.40;;;;;;4984586;28;20045;-50
2022/11/06 01:50:45;;;;;;;23.25;11.80;;;6.60;81.80;;;;;;4985943;28;20022;-48
2022/11/06 01:53:11;;;;;;;24.15;13.95;;;6.50;81.80;;;;;;4988873;28;20042;-50
2022/11/06 01:55:41;;;;;;;29.38;13.82;;;6.50;82.00;;;;;;4988246;28;20026;-50
2022/11/06 01:58:11;;;;;;;30.77;13.80;;;6.40;82.70;;;;;;4988470;28;20046;-46
2022/11/06 02:00:37;;;;;;;26.20;13.20;;;6.30;82.90;;;;;;4990061;28;20027;-49
2022/11/06 02:03:03;;;;;;;36.63;14.70;;;6.30;83.50;;;;;;4988085;28;20030;-47
2022/11/06 02:05:29;;;;;;;34.10;14.52;;;6.20;83.50;;;;;;4988911;28;20041;-48
2022/11/06 02:07:56;;;;;;;24.02;12.57;;;6.20;83.50;;;;;;4986645;28;20114;-50
2022/11/06 02:10:21;;;;;;;;;;;6.30;82.90;;;;;;4990065;28;20077;-48
2022/11/06 02:12:57;;;;;;;26.55;11.95;;;6.40;82.40;;;;;;4987077;28;20354;-49
2022/11/06 02:15:38;;;;;;;26.73;12.70;;;6.50;81.80;;;;;;4989793;28;20514;-50
2022/11/06 02:18:27;;;;;;;24.70;12.00;;;6.60;81.40;;;;;;4987177;28;20804;-49
2022/11/06 02:21:14;;;;;;;30.15;13.27;;;6.60;81.10;;;;;;4985317;28;20081;-51
2022/11/06 02:24:21;;;;;;;24.13;12.38;;;6.40;82.10;;;;;;4988071;28;20023;-54
2022/11/06 02:27:12;;;;;;;28.30;13.23;;;6.40;81.70;;;;;;4980696;28;20033;-52
2022/11/06 02:30:04;;;;;;;25.30;12.40;;;6.50;81.50;;;;;;4981488;28;20502;-50
2022/11/06 02:32:45;;;;;;;21.35;12.30;;;6.50;80.90;;;;;;4982393;28;20039;-54
2022/11/06 02:35:16;;;;;;;20.52;11.18;;;6.50;80.40;;;;;;4987637;28;20040;-54
2022/11/06 02:37:43;;;;;;;38.45;13.70;;;6.40;80.60;;;;;;4989093;28;20089;-51
2022/11/06 02:40:10;;;;;;;34.22;12.98;;;6.20;80.90;;;;;;4986360;28;20057;-58
2022/11/06 02:42:40;;;;;;;23.42;11.45;;;6.10;81.70;;;;;;4988008;28;21064;-52
2022/11/06 02:45:10;;;;;;;30.15;11.70;;;6.20;81.50;;;;;;4986964;28;20038;-53
2022/11/06 02:47:36;;;;;;;30.42;11.60;;;6.00;81.70;;;;;;4988082;28;20666;-53
2022/11/06 02:50:10;;;;;;;;;;;6.00;81.40;;;;;;4986230;28;20030;-48
2022/11/06 02:52:43;;;;;;;35.45;11.75;;;5.90;82.60;;;;;;4987867;28;19906;-49
2022/11/06 02:55:12;;;;;;;25.38;11.73;;;6.00;82.00;;;;;;4987528;28;20398;-49
2022/11/06 02:57:45;;;;;;;20.40;11.82;;;6.00;81.80;;;;;;4984565;28;20035;-52
2022/11/06 03:00:13;;;;;;;23.20;12.15;;;6.10;81.00;;;;;;4987506;28;20030;-48
2022/11/06 03:02:51;;;;;;;27.65;12.23;;;6.10;81.00;;;;;;4985251;28;20133;-48
2022/11/06 03:05:33;;;;;;;30.45;12.75;;;6.00;81.30;;;;;;4983923;28;20078;-48
2022/11/06 03:08:28;;;;;;;32.08;13.05;;;5.90;81.90;;;;;;4987276;28;20030;-50
2022/11/06 03:11:12;;;;;;;26.88;13.35;;;5.90;82.70;;;;;;4980893;28;20042;-49
2022/11/06 03:13:48;;;;;;;25.05;12.50;;;5.90;82.40;;;;;;4988040;28;20027;-48
2022/11/06 03:16:22;;;;;;;24.35;11.45;;;6.00;81.80;;;;;;4983325;28;20069;-51
2022/11/06 03:19:00;;;;;;;17.88;11.68;;;6.00;81.70;;;;;;4987145;28;20486;-50
2022/11/06 03:21:35;;;;;;;23.02;12.02;;;6.10;81.30;;;;;;4988065;28;20038;-52
2022/11/06 03:24:10;;;;;;;20.17;12.07;;;6.10;81.30;;;;;;4985563;28;20030;-56
2022/11/06 03:26:39;;;;;;;23.77;13.13;;;6.10;81.20;;;;;;4986963;28;20049;-51
2022/11/06 03:29:28;;;;;;;28.85;12.65;;;6.10;81.00;;;;;;4983864;28;20027;-48
2022/11/06 03:32:11;;;;;;;28.55;11.40;;;6.00;80.30;;;;;;4980099;28;20045;-51
2022/11/06 03:35:05;;;;;;;19.60;10.32;;;6.00;80.80;;;;;;4983197;28;20057;-52
2022/11/06 03:38:03;;;;;;;19.85;12.43;;;5.90;81.10;;;;;;4984825;28;20120;-53
2022/11/06 03:40:34;;;;;;;17.23;9.80;;;5.90;81.10;;;;;;4980287;28;20038;-58
2022/11/06 03:43:03;;;;;;;22.63;11.63;;;5.90;80.70;;;;;;4982720;28;20034;-52
2022/11/06 03:45:30;;;;;;;19.65;10.75;;;5.90;81.10;;;;;;4985310;28;20105;-56
2022/11/06 03:48:01;;;;;;;18.73;12.15;;;5.60;81.30;;;;;;4986425;28;20026;-59
2022/11/06 03:50:32;;;;;;;20.63;11.45;;;5.50;81.20;;;;;;4983332;28;20027;-55
2022/11/06 03:53:19;;;;;;;24.50;11.27;;;5.60;81.40;;;;;;4988312;28;20034;-49
2022/11/06 03:55:51;;;;;;;;;;;5.70;81.40;;;;;;4985890;28;20042;-49
2022/11/06 03:58:21;;;;;;;45.47;12.38;;;5.80;81.20;;;;;;4987511;28;19976;-52
2022/11/06 04:00:50;;;;;;;20.08;12.38;;;5.60;81.90;;;;;;4985860;28;20023;-49
2022/11/06 04:03:57;;;;;;;23.58;12.90;;;5.60;81.50;;;;;;4985208;28;20054;-46
2022/11/06 04:06:29;;;;;;;24.90;12.65;;;5.60;81.80;;;;;;4985619;28;20762;-52
2022/11/06 04:14:31;;;;;;;27.60;13.18;;;5.40;83.80;;;;;;4984702;28;20549;-47
2022/11/06 04:17:00;;;;;;;26.42;12.93;;;5.20;84.00;;;;;;4985701;28;20493;-49
2022/11/06 04:19:26;;;;;;;26.80;12.23;;;5.20;84.30;;;;;;4987295;28;20072;-49
2022/11/06 04:22:00;;;;;;;33.80;13.07;;;5.30;84.30;;;;;;4983247;28;20030;-47
2022/11/06 04:27:53;;;;;;;27.23;12.70;;;5.30;84.00;;;;;;4986558;28;20837;-48
2022/11/06 04:30:19;;;;;;;24.58;12.60;;;5.40;83.40;;;;;;4987448;28;20074;-49
2022/11/06 04:32:53;;;;;;;25.50;13.20;;;5.40;83.20;;;;;;4990133;28;20034;-51
2022/11/06 04:35:41;;;;;;;23.70;12.35;;;5.50;83.40;;;;;;4989738;28;20034;-48
2022/11/06 04:38:28;;;;;;;24.00;12.82;;;5.50;83.50;;;;;;4990019;28;20062;-52
2022/11/06 04:41:02;;;;;;;31.95;12.70;;;5.60;83.30;;;;;;4985010;28;20038;-49
2022/11/06 04:44:01;;;;;;;23.98;12.73;;;5.60;83.70;;;;;;4990816;28;20034;-49
2022/11/06 04:46:42;;;;;;;27.95;12.32;;;5.60;83.80;;;;;;4999054;28;20030;-54
2022/11/06 04:49:09;;;;;;;26.10;13.80;;;5.50;84.00;;;;;;4989125;28;20045;-50
2022/11/06 04:51:37;;;;;;;28.05;11.82;;;5.50;84.00;;;;;;4989951;28;20026;-56
2022/11/06 04:54:07;;;;;;;24.13;12.73;;;5.50;83.80;;;;;;4988502;28;20037;-54
2022/11/06 04:56:34;;;;;;;21.23;11.80;;;5.50;83.60;;;;;;4989374;28;20516;-50
2022/11/06 04:59:01;;;;;;;23.95;12.27;;;5.60;83.40;;;;;;4990792;28;20109;-51
2022/11/06 05:01:26;;;;;;;24.98;12.00;;;5.60;83.10;;;;;;4987947;28;20553;-49
2022/11/06 05:03:52;;;;;;;23.43;12.93;;;5.50;83.30;;;;;;4990975;28;20034;-50
2022/11/06 05:06:18;;;;;;;23.77;12.10;;;5.60;83.20;;;;;;4985234;28;20398;-50
2022/11/06 05:08:43;;;;;;;23.77;12.23;;;5.50;83.00;;;;;;4989102;28;20026;-49
2022/11/06 05:11:09;;;;;;;32.43;12.77;;;5.60;83.40;;;;;;4988076;28;20034;-49
2022/11/06 05:13:36;;;;;;;26.20;11.63;;;5.60;82.70;;;;;;4991412;28;20022;-50
2022/11/06 05:16:01;;;;;;;26.08;12.95;;;5.60;82.70;;;;;;4985071;28;20080;-48
2022/11/06 05:18:27;;;;;;;23.23;12.60;;;5.70;82.80;;;;;;4990720;28;20117;-50
2022/11/06 05:23:39;;;;;;;20.90;10.43;;;5.70;82.30;;;;;;4966517;28;20778;-48
2022/11/06 05:26:06;;;;;;;27.02;10.13;;;5.70;82.00;;;;;;4986673;28;20038;-48
2022/11/06 05:28:32;;;;;;;29.02;10.25;;;5.70;82.10;;;;;;4988711;28;20026;-51
2022/11/06 05:30:57;;;;;;;47.58;11.93;;;5.70;82.00;;;;;;4984574;28;20069;-53
2022/11/06 05:33:23;;;;;;;101.77;38.20;;;5.60;82.30;;;;;;4988533;28;20034;-54
2022/11/06 05:35:50;;;;;;;170.73;68.43;;;5.60;82.80;;;;;;4984823;28;20050;-51
2022/11/06 05:38:15;;;;;;;;;;;5.50;82.80;;;;;;4989003;28;20014;-52
2022/11/06 05:40:41;;;;;;;29.08;13.90;;;5.40;83.50;;;;;;4990083;28;19909;-53
2022/11/06 05:43:07;;;;;;;56.65;12.18;;;5.30;83.10;;;;;;4987602;28;20133;-55
2022/11/06 05:45:33;;;;;;;37.10;11.77;;;5.30;84.00;;;;;;4989901;28;20081;-57
2022/11/06 05:47:59;;;;;;;38.95;11.23;;;5.20;83.90;;;;;;4986990;28;20041;-55
2022/11/06 05:50:25;;;;;;;47.00;11.50;;;5.30;84.40;;;;;;4987390;28;20041;-56
2022/11/06 05:52:51;;;;;;;89.50;12.80;;;5.40;84.20;;;;;;4990600;28;20109;-55
2022/11/06 05:55:16;;;;;;;20.63;11.60;;;5.30;84.20;;;;;;4987398;28;20117;-54
2022/11/06 05:57:42;;;;;;;53.65;12.43;;;5.40;83.60;;;;;;5015880;28;20407;-55
2022/11/06 06:00:10;;;;;;;90.57;13.30;;;5.40;83.90;;;;;;4990718;28;20077;-55
2022/11/06 06:02:36;;;;;;;75.38;12.18;;;5.40;84.50;;;;;;4986276;28;20073;-58
2022/11/06 06:05:02;;;;;;;50.03;12.43;;;5.30;83.80;;;;;;4987236;28;20501;-49
2022/11/06 06:07:28;;;;;;;67.60;12.00;;;5.40;84.10;;;;;;4988362;28;20023;-46
2022/11/06 06:09:54;;;;;;;39.20;11.52;;;5.40;83.70;;;;;;4990075;28;20449;-48
2022/11/06 06:12:22;;;;;;;44.70;12.03;;;5.40;83.90;;;;;;4986949;28;20030;-46
2022/11/06 06:14:48;;;;;;;28.63;13.05;;;5.20;84.00;;;;;;4987376;28;20281;-50
2022/11/06 06:17:14;;;;;;;27.83;11.57;;;5.30;84.30;;;;;;4985957;28;20423;-49
2022/11/06 06:19:40;;;;;;;43.30;13.00;;;5.40;84.40;;;;;;4989874;28;20105;-52
2022/11/06 06:22:05;;;;;;;24.50;12.77;;;5.50;85.00;;;;;;4988285;28;20080;-46
2022/11/06 06:24:31;;;;;;;22.20;11.37;;;5.50;83.20;;;;;;4984056;28;20031;-51
2022/11/06 06:26:56;;;;;;;24.10;13.03;;;5.30;83.20;;;;;;4987797;28;20034;-48
2022/11/06 06:29:22;;;;;;;31.53;14.33;;;5.40;84.10;;;;;;4987457;28;20031;-52
2022/11/06 06:31:48;;;;;;;29.63;13.73;;;5.40;84.40;;;;;;4987860;28;20026;-50
2022/11/06 06:34:14;;;;;;;32.38;15.55;;;5.40;84.30;;;;;;4998342;28;20041;-46
2022/11/06 06:36:40;;;;;;;39.22;15.70;;;5.50;84.20;;;;;;4989668;28;20046;-48
2022/11/06 06:39:06;;;;;;;37.97;16.88;;;5.40;84.40;;;;;;4988124;28;20126;-46
2022/11/06 06:41:32;;;;;;;45.70;16.73;;;5.40;84.60;;;;;;4987729;28;20057;-49
2022/11/06 06:43:58;;;;;;;34.88;14.90;;;5.30;84.70;;;;;;4985030;28;20030;-47
2022/11/06 06:46:23;;;;;;;30.92;13.85;;;5.30;84.80;;;;;;4987253;28;20034;-49
2022/11/06 06:48:49;;;;;;;29.05;14.80;;;5.30;84.80;;;;;;4987045;28;20022;-46
2022/11/06 06:51:15;;;;;;;29.97;13.57;;;5.30;84.50;;;;;;4987804;28;20113;-48
2022/11/06 06:53:41;;;;;;;24.00;14.20;;;5.20;84.30;;;;;;4988149;28;20145;-49
2022/11/06 06:56:06;;;;;;;23.58;12.85;;;5.20;84.40;;;;;;4984928;28;20791;-49
2022/11/06 06:58:32;;;;;;;23.60;13.47;;;5.40;84.50;;;;;;4987103;28;20034;-52
2022/11/06 07:01:00;;;;;;;22.25;12.68;;;5.40;83.90;;;;;;4985870;28;20494;-50
2022/11/06 07:03:27;;;;;;;26.50;12.93;;;5.30;84.00;;;;;;4982952;28;20034;-47
2022/11/06 07:05:52;;;;;;;23.50;13.23;;;5.30;83.90;;;;;;4985402;28;20825;-48
2022/11/06 07:08:18;;;;;;;25.38;13.50;;;5.30;83.90;;;;;;5013235;28;20034;-57
2022/11/06 07:10:44;;;;;;;33.95;12.82;;;5.40;83.80;;;;;;4984733;28;20030;-48
2022/11/06 07:13:10;;;;;;;20.77;12.53;;;5.40;83.40;;;;;;4983324;28;20507;-50
2022/11/06 07:15:35;;;;;;;22.27;13.25;;;5.30;83.50;;;;;;4986949;28;20026;-50
2022/11/06 07:18:03;;;;;;;23.87;12.67;;;5.30;83.80;;;;;;4986862;28;20041;-51
2022/11/06 07:20:29;;;;;;;24.73;11.95;;;5.40;83.90;;;;;;4986506;28;20390;-51
2022/11/06 07:22:55;;;;;;;20.92;12.18;;;5.40;83.80;;;;;;4988278;28;20037;-52
2022/11/06 07:25:21;;;;;;;21.80;11.87;;;5.40;83.90;;;;;;4983302;28;20022;-51
2022/11/06 07:27:46;;;;;;;19.10;11.63;;;5.50;83.80;;;;;;4986409;28;20029;-50
2022/11/06 07:30:12;;;;;;;21.87;11.10;;;5.50;83.90;;;;;;4985234;28;20073;-51
2022/11/06 07:32:37;;;;;;;23.10;13.03;;;5.60;83.90;;;;;;4989088;28;20177;-51
2022/11/06 07:35:03;;;;;;;22.93;13.23;;;5.60;83.90;;;;;;4984883;28;20030;-47
2022/11/06 07:37:29;;;;;;;23.70;12.35;;;5.70;84.10;;;;;;4985631;28;20054;-51
2022/11/06 07:39:54;;;;;;;24.77;13.10;;;5.80;84.00;;;;;;4985555;28;20046;-56
2022/11/06 07:42:20;;;;;;;21.10;11.60;;;5.80;84.30;;;;;;4984953;28;20034;-50
2022/11/06 07:44:46;;;;;;;21.60;12.90;;;5.90;84.20;;;;;;4982679;28;20030;-51
2022/11/06 07:47:11;;;;;;;23.20;12.97;;;6.00;83.90;;;;;;4986966;28;20049;-57
2022/11/06 07:49:37;;;;;;;27.13;11.77;;;6.00;84.10;;;;;;4987453;28;20038;-55
2022/11/06 07:52:04;;;;;;;22.47;11.73;;;6.10;84.00;;;;;;4985296;28;20068;-55
2022/11/06 07:54:30;;;;;;;19.67;11.38;;;6.10;84.30;;;;;;4983651;28;20045;-52
2022/11/06 07:56:55;;;;;;;20.23;11.63;;;6.20;84.00;;;;;;4986981;28;20042;-57
2022/11/06 07:59:21;;;;;;;18.67;11.23;;;6.10;84.00;;;;;;4986953;28;20031;-54
2022/11/06 08:01:46;;;;;;;22.50;12.37;;;6.20;84.30;;;;;;4984024;28;20034;-55
2022/11/06 08:04:12;;;;;;;20.00;12.33;;;6.20;83.90;;;;;;4986565;28;20375;-56
2022/11/06 08:06:38;;;;;;;19.63;11.70;;;6.20;84.00;;;;;;4988255;28;20092;-58
2022/11/06 08:09:06;;;;;;;21.73;12.18;;;6.30;84.00;;;;;;4983614;28;20042;-57
2022/11/06 08:11:31;;;;;;;21.05;11.65;;;6.40;83.80;;;;;;4986170;28;20113;-54
2022/11/06 08:13:59;;;;;;;19.07;12.37;;;6.40;83.90;;;;;;4986403;28;20153;-54
2022/11/06 08:16:25;;;;;;;19.58;12.38;;;6.50;84.00;;;;;;4984917;28;20050;-52
2022/11/06 08:18:51;;;;;;;22.40;11.83;;;6.50;84.20;;;;;;4987549;28;20026;-51
2022/11/06 08:21:16;;;;;;;23.00;12.97;;;6.60;84.30;;;;;;4985824;28;20030;-54
2022/11/06 08:23:42;;;;;;;18.33;11.93;;;6.60;84.30;;;;;;4986764;28;20031;-54
2022/11/06 08:26:09;;;;;;;22.10;12.60;;;6.80;84.00;;;;;;4986003;28;20031;-54
2022/11/06 08:28:35;;;;;;;17.50;11.23;;;6.80;84.30;;;;;;4985075;28;20023;-55
2022/11/06 08:31:05;;;;;;;18.57;11.47;;;6.90;84.30;;;;;;4983757;28;20435;-53
2022/11/06 08:33:31;;;;;;;19.70;12.15;;;7.00;84.90;;;;;;4987331;28;20407;-51
2022/11/06 08:36:01;;;;;;;16.95;10.23;;;7.00;84.70;;;;;;4986223;28;20041;-52
2022/11/06 08:38:26;;;;;;;17.80;10.07;;;7.10;84.80;;;;;;4986476;28;20049;-50
2022/11/06 08:40:52;;;;;;;21.90;11.10;;;7.20;84.60;;;;;;4984253;28;20030;-47
2022/11/06 08:43:17;;;;;;;23.20;11.83;;;7.30;84.70;;;;;;4983177;28;20030;-49
2022/11/06 08:45:43;;;;;;;16.97;10.40;;;7.30;84.90;;;;;;4982739;28;20027;-53
2022/11/06 08:48:10;;;;;;;14.23;9.97;;;7.50;84.60;;;;;;4982137;28;20413;-56
2022/11/06 08:50:37;;;;;;;15.70;9.57;;;7.50;84.80;;;;;;4984398;28;20384;-52
2022/11/06 08:53:05;;;;;;;17.52;12.30;;;7.60;84.70;;;;;;4988137;28;20026;-54
2022/11/06 08:55:32;;;;;;;21.73;11.68;;;7.70;84.80;;;;;;4984120;28;20510;-52
2022/11/06 08:57:57;;;;;;;19.40;10.98;;;7.70;84.40;;;;;;4986199;28;20125;-51
2022/11/06 09:00:23;;;;;;;18.05;11.73;;;7.80;84.40;;;;;;4987454;28;20542;-47
2022/11/06 09:02:49;;;;;;;18.87;9.50;;;7.90;84.50;;;;;;4985534;28;20030;-50
2022/11/06 09:05:15;;;;;;;13.20;7.80;;;7.90;84.20;;;;;;4982355;28;20026;-48
2022/11/06 09:07:40;;;;;;;12.70;7.60;;;8.00;84.00;;;;;;4987276;28;20805;-47
2022/11/06 09:10:06;;;;;;;12.93;8.17;;;8.10;83.80;;;;;;4985215;28;20054;-47
2022/11/06 09:12:32;;;;;;;18.73;11.48;;;8.20;84.20;;;;;;4989304;28;20072;-48
2022/11/06 09:14:57;;;;;;;15.47;10.13;;;8.20;84.40;;;;;;4985914;28;20046;-47
2022/11/06 09:17:23;;;;;;;12.93;8.20;;;8.30;84.40;;;;;;4991529;28;20114;-48
2022/11/06 09:19:52;;;;;;;9.20;5.60;;;8.30;84.30;;;;;;4986549;28;20414;-47
2022/11/06 09:22:18;;;;;;;8.70;5.80;;;8.50;82.40;;;;;;4991371;28;20026;-49
2022/11/06 09:24:43;;;;;;;13.97;6.30;;;8.50;83.30;;;;;;4989417;28;20092;-49
2022/11/06 09:27:09;;;;;;;9.27;5.30;;;8.70;83.30;;;;;;4989545;28;20351;-50
2022/11/06 09:29:39;;;;;;;9.23;4.90;;;8.70;81.30;;;;;;4988475;28;20054;-47
2022/11/06 09:32:05;;;;;;;8.75;5.53;;;8.90;82.00;;;;;;4989288;28;20356;-50
2022/11/06 09:34:31;;;;;;;8.43;4.78;;;8.90;81.10;;;;;;4989408;28;20046;-48
2022/11/06 09:36:56;;;;;;;8.83;5.57;;;9.00;80.50;;;;;;4988075;28;20054;-49
2022/11/06 09:39:22;;;;;;;6.50;4.10;;;9.00;82.10;;;;;;4983226;28;20105;-52
2022/11/06 09:41:57;;;;;;;9.00;4.63;;;9.10;80.40;;;;;;4989114;28;20030;-47
2022/11/06 09:44:32;;;;;;;9.40;4.85;;;9.20;80.10;;;;;;4991186;28;20034;-52
2022/11/06 09:47:03;;;;;;;9.10;4.80;;;9.20;80.50;;;;;;4987591;28;20395;-48
2022/11/06 09:49:40;;;;;;;36.83;5.18;;;9.30;80.20;;;;;;4986947;28;20403;-51
2022/11/06 09:52:24;;;;;;;;;;;9.30;79.30;;;;;;4991507;28;20026;-49
2022/11/06 09:55:21;;;;;;;6.97;3.92;;;9.40;78.60;;;;;;4987922;28;19948;-50
2022/11/06 09:57:48;;;;;;;7.32;4.80;;;9.50;78.80;;;;;;4981125;28;20033;-55
2022/11/06 10:00:16;;;;;;;6.70;4.15;;;9.60;79.60;;;;;;4983043;28;20050;-48
2022/11/06 10:02:51;;;;;;;6.70;4.60;;;9.70;78.20;;;;;;4989436;28;20536;-54
2022/11/06 10:05:29;;;;;;;9.20;4.40;;;9.70;78.10;;;;;;4988022;28;20037;-51
2022/11/06 10:08:01;;;;;;;7.10;4.43;;;9.80;78.60;;;;;;4990347;28;20087;-53
2022/11/06 10:10:40;;;;;;;5.72;3.22;;;9.80;79.90;;;;;;4988470;28;20532;-52
2022/11/06 10:13:14;;;;;;;8.20;3.80;;;9.90;77.40;;;;;;4985001;28;20030;-50
2022/11/06 10:15:55;;;;;;;6.82;4.05;;;10.00;77.50;;;;;;4984740;28;20035;-47
2022/11/06 10:18:50;;;;;;;6.53;4.40;;;10.00;78.70;;;;;;4986781;28;20033;-50
2022/11/06 10:21:18;;;;;;;11.00;4.82;;;10.10;78.90;;;;;;4989642;28;20042;-47
2022/11/06 10:23:53;;;;;;;4.97;3.72;;;10.30;78.70;;;;;;4979197;28;20986;-53
2022/11/06 10:26:24;;;;;;;5.70;4.07;;;10.30;76.90;;;;;;4989579;28;20054;-55
2022/11/06 10:29:10;;;;;;;21.63;4.78;;;10.30;76.40;;;;;;4985503;28;20146;-53
2022/11/06 10:32:02;;;;;;;23.20;4.53;;;10.40;76.70;;;;;;4988108;28;20034;-54
2022/11/06 10:34:34;;;;;;;8.23;4.55;;;10.60;75.90;;;;;;4983357;28;20073;-52
2022/11/06 10:37:06;;;;;;;9.07;4.93;;;10.60;77.00;;;;;;4987465;28;20104;-51
2022/11/06 10:39:34;;;;;;;12.35;5.28;;;10.70;78.40;;;;;;4989700;28;20034;-56
2022/11/06 10:42:22;;;;;;;8.60;5.45;;;10.80;76.80;;;;;;4984206;28;20039;-50
2022/11/06 10:44:50;;;;;;;;;;;10.90;78.30;;;;;;4984862;28;20022;-52
2022/11/06 10:47:20;;;;;;;8.88;4.07;;;11.00;76.40;;;;;;4987610;28;19914;-50
2022/11/06 10:49:58;;;;;;;6.55;3.70;;;11.20;76.40;;;;;;4983752;28;20036;-52
2022/11/06 10:52:57;;;;;;;6.70;3.60;;;11.30;77.10;;;;;;4984937;28;20034;-49
2022/11/06 10:55:50;;;;;;;5.78;3.35;;;11.40;75.70;;;;;;4985987;28;20117;-50
2022/11/06 10:58:21;;;;;;;4.18;3.00;;;11.60;74.50;;;;;;4983467;28;20039;-51
2022/11/06 11:00:49;;;;;;;6.35;3.38;;;11.70;76.90;;;;;;4982873;28;20030;-53
2022/11/06 11:03:32;;;;;;;4.50;2.92;;;12.00;76.00;;;;;;4986812;28;20038;-51
2022/11/06 11:05:58;;;;;;;4.03;2.80;;;12.10;74.20;;;;;;4985390;28;20081;-55
2022/11/06 11:08:29;;;;;;;5.57;3.60;;;12.30;75.70;;;;;;4986656;28;20030;-49
2022/11/06 11:11:13;;;;;;;4.22;2.67;;;12.40;72.90;;;;;;4984963;28;20054;-51
2022/11/06 11:13:45;;;;;;;6.07;2.97;;;12.60;74.70;;;;;;4986998;28;20454;-50
2022/11/06 11:16:17;;;;;;;5.25;2.88;;;12.90;74.10;;;;;;4985067;28;20096;-47
2022/11/06 11:18:44;;;;;;;4.90;3.00;;;13.20;73.90;;;;;;4984242;28;20090;-54
2022/11/06 11:21:18;;;;;;;4.97;2.85;;;13.40;72.20;;;;;;4989026;28;20399;-51
2022/11/06 11:23:45;;;;;;;4.35;2.50;;;13.50;70.10;;;;;;4978246;28;20238;-55
2022/11/06 11:26:23;;;;;;;5.25;2.45;;;13.70;69.80;;;;;;4977681;28;20030;-53
2022/11/06 11:28:54;;;;;;;8.85;2.38;;;13.90;70.30;;;;;;4986313;28;20085;-52
2022/11/06 11:31:30;;;;;;;2.75;1.95;;;14.00;68.80;;;;;;4983234;28;20515;-50
2022/11/06 11:33:59;;;;;;;4.22;1.48;;;14.20;66.20;;;;;;4985203;28;20031;-54
2022/11/06 11:36:25;;;;;;;2.65;1.60;;;14.40;57.40;;;;;;4983763;28;20085;-53
2022/11/06 11:38:51;;;;;;;3.13;1.53;;;14.60;62.90;;;;;;4984071;28;20056;-52
2022/11/06 11:41:20;;;;;;;3.00;1.50;;;14.80;61.40;;;;;;4986546;28;20034;-52
2022/11/06 11:44:24;;;;;;;2.75;1.67;;;14.70;59.90;;;;;;4985141;28;20043;-60
2022/11/06 11:46:51;;;;;;;3.45;1.75;;;14.90;64.90;;;;;;4974597;28;20065;-50
2022/11/06 11:49:27;;;;;;;2.72;1.90;;;15.10;65.90;;;;;;4979376;28;20045;-60
2022/11/06 11:51:54;;;;;;;3.03;1.58;;;15.30;56.30;;;;;;4977509;28;20053;-50
2022/11/06 11:54:25;;;;;;;1.40;1.15;;;15.50;57.50;;;;;;4985224;28;20164;-52
2022/11/06 11:57:03;;;;;;;1.88;1.15;;;15.80;53.30;;;;;;4986734;28;20030;-53
2022/11/06 11:59:46;;;;;;;3.47;1.60;;;16.00;58.10;;;;;;4985081;28;20068;-54
2022/11/06 12:02:33;;;;;;;5.63;1.52;;;16.20;57.50;;;;;;4981132;28;20035;-54
2022/11/06 12:05:04;;;;;;;2.08;1.10;;;16.40;54.70;;;;;;4982980;28;20034;-53
2022/11/06 12:07:31;;;;;;;1.65;1.20;;;16.40;58.00;;;;;;4982904;28;20046;-57
2022/11/06 12:09:58;;;;;;;2.97;1.45;;;16.50;53.30;;;;;;4980399;28;20557;-54
2022/11/06 12:12:31;;;;;;;3.55;1.50;;;16.50;56.50;;;;;;4983062;28;20041;-60
2022/11/06 12:15:15;;;;;;;1.23;0.95;;;16.50;55.20;;;;;;4981803;28;20023;-57
2022/11/06 12:17:43;;;;;;;2.30;1.38;;;16.30;51.50;;;;;;4982490;28;20042;-53
2022/11/06 12:20:18;;;;;;;3.03;1.40;;;16.10;52.20;;;;;;4979709;28;20077;-60
2022/11/06 12:22:46;;;;;;;3.13;1.52;;;15.90;56.40;;;;;;4978704;28;20042;-58
2022/11/06 12:25:38;;;;;;;2.35;1.20;;;15.80;56.30;;;;;;4983838;28;20044;-54
2022/11/06 12:28:12;;;;;;;2.80;1.63;;;15.60;56.30;;;;;;4979522;28;20039;-61
2022/11/06 12:30:43;;;;;;;5.65;1.65;;;15.50;56.20;;;;;;4985161;28;20030;-56
2022/11/06 12:33:23;;;;;;;14.40;1.88;;;15.40;55.40;;;;;;4985911;28;20053;-54
2022/11/06 12:35:54;;;;;;;3.83;1.60;;;15.40;58.40;;;;;;4978227;28;20076;-53
2022/11/06 12:38:38;;;;;;;1.88;1.38;;;15.40;56.90;;;;;;4987475;28;20125;-54
2022/11/06 12:41:21;;;;;;;3.25;1.50;;;15.60;59.80;;;;;;4985186;28;20034;-50
2022/11/06 12:43:49;;;;;;;8.43;1.42;;;16.00;58.80;;;;;;4980101;28;20034;-54
2022/11/06 12:46:20;;;;;;;1.95;1.40;;;16.40;53.70;;;;;;4989194;28;20041;-53
2022/11/06 12:49:19;;;;;;;1.55;1.15;;;16.70;55.90;;;;;;4988833;28;20564;-51
2022/11/06 12:51:52;;;;;;;5.90;1.20;;;17.10;53.40;;;;;;4987554;28;20045;-49
2022/11/06 12:54:48;;;;;;;2.05;1.00;;;17.20;50.80;;;;;;4987183;28;20402;-51
2022/11/06 12:57:35;;;;;;;1.63;1.02;;;17.50;45.70;;;;;;4988967;28;20121;-55
2022/11/06 13:00:16;;;;;;;1.90;0.90;;;17.70;46.00;;;;;;4989031;28;20399;-55
2022/11/06 13:03:03;;;;;;;2.67;1.10;;;17.90;47.70;;;;;;4988576;28;20033;-52
2022/11/06 13:05:41;;;;;;;1.13;0.80;;;18.20;49.80;;;;;;4989597;28;20080;-54
2022/11/06 13:08:25;;;;;;;;;;;18.40;45.40;;;;;;4988491;28;20031;-55
2022/11/06 13:11:02;;;;;;;5.97;1.00;;;18.30;48.70;;;;;;4987777;28;19916;-61
2022/11/06 13:13:43;;;;;;;3.13;1.10;;;18.30;44.80;;;;;;4986031;28;20023;-57
2022/11/06 13:16:30;;;;;;;1.95;1.20;;;18.50;48.40;;;;;;4981683;28;20510;-51